sensor_id;sensor_type;location;lat;lon;timestamp;P1;durP1;ratioP1;P2;durP2;ratioP2
36829;SDS011;22767;47.328;9.640;2023-05-17T00:02:07;7.72;;;2.60;;
36829;SDS011;22767;47.328;9.640;2023-05-17T00:04:33;4.85;;;2.33;;
36829;SDS011;22767;47.328;9.640;2023-05-17T00:07:00;5.70;;;2.78;;
36829;SDS011;22767;47.328;9.640;2023-05-17T00:09:26;5.60;;;2.55;;
36829;SDS011;22767;47.328;9.640;2023-05-17T00:11:52;6.10;;;2.13;;
36829;SDS011;22767;47.328;9.640;2023-05-17T00:14:18;4.65;;;2.03;;
36829;SDS011;22767;47.328;9.640;2023-05-17T00:16:44;5.88;;;2.42;;
36829;SDS011;22767;47.328;9.640;2023-05-17T00:19:10;6.30;;;2.50;;
36829;SDS011;22767;47.328;9.640;2023-05-17T00:21:36;5.15;;;2.42;;
36829;SDS011;22767;47.328;9.640;2023-05-17T00:24:02;6.63;;;2.45;;
36829;SDS011;22767;47.328;9.640;2023-05-17T00:26:28;7.05;;;2.67;;
36829;SDS011;22767;47.328;9.640;2023-05-17T00:28:54;7.40;;;2.40;;
36829;SDS011;22767;47.328;9.640;2023-05-17T00:31:20;4.93;;;2.33;;
36829;SDS011;22767;47.328;9.640;2023-05-17T00:33:46;5.10;;;2.40;;
36829;SDS011;22767;47.328;9.640;2023-05-17T00:36:12;8.15;;;2.60;;
36829;SDS011;22767;47.328;9.640;2023-05-17T00:38:38;5.75;;;2.80;;
36829;SDS011;22767;47.328;9.640;2023-05-17T00:41:05;6.18;;;2.60;;
36829;SDS011;22767;47.328;9.640;2023-05-17T00:43:31;6.28;;;2.28;;
36829;SDS011;22767;47.328;9.640;2023-05-17T00:45:57;5.75;;;2.33;;
36829;SDS011;22767;47.328;9.640;2023-05-17T00:48:23;6.85;;;1.98;;
36829;SDS011;22767;47.328;9.640;2023-05-17T00:50:52;4.32;;;2.03;;
36829;SDS011;22767;47.328;9.640;2023-05-17T00:53:18;7.35;;;2.20;;
36829;SDS011;22767;47.328;9.640;2023-05-17T00:55:44;9.10;;;2.65;;
36829;SDS011;22767;47.328;9.640;2023-05-17T00:58:11;10.27;;;2.80;;
36829;SDS011;22767;47.328;9.640;2023-05-17T01:00:37;5.03;;;2.33;;
36829;SDS011;22767;47.328;9.640;2023-05-17T01:03:03;6.25;;;2.20;;
36829;SDS011;22767;47.328;9.640;2023-05-17T01:05:30;5.35;;;2.35;;
36829;SDS011;22767;47.328;9.640;2023-05-17T01:07:56;2.72;;;2.30;;
36829;SDS011;22767;47.328;9.640;2023-05-17T01:10:27;6.82;;;2.53;;
36829;SDS011;22767;47.328;9.640;2023-05-17T01:13:05;5.38;;;2.20;;
36829;SDS011;22767;47.328;9.640;2023-05-17T01:15:35;7.20;;;2.42;;
36829;SDS011;22767;47.328;9.640;2023-05-17T01:23:05;5.80;;;2.55;;
36829;SDS011;22767;47.328;9.640;2023-05-17T01:25:41;5.18;;;2.85;;
36829;SDS011;22767;47.328;9.640;2023-05-17T01:28:10;6.82;;;2.10;;
36829;SDS011;22767;47.328;9.640;2023-05-17T01:30:37;5.65;;;2.53;;
36829;SDS011;22767;47.328;9.640;2023-05-17T01:33:03;6.07;;;2.30;;
36829;SDS011;22767;47.328;9.640;2023-05-17T01:35:29;5.78;;;2.28;;
36829;SDS011;22767;47.328;9.640;2023-05-17T01:37:55;4.78;;;2.45;;
36829;SDS011;22767;47.328;9.640;2023-05-17T01:40:21;7.03;;;2.63;;
36829;SDS011;22767;47.328;9.640;2023-05-17T01:42:49;4.60;;;2.10;;
36829;SDS011;22767;47.328;9.640;2023-05-17T01:48:05;4.90;;;2.10;;
36829;SDS011;22767;47.328;9.640;2023-05-17T01:50:33;5.25;;;2.00;;
36829;SDS011;22767;47.328;9.640;2023-05-17T01:55:43;6.72;;;2.45;;
36829;SDS011;22767;47.328;9.640;2023-05-17T01:58:11;5.30;;;2.13;;
36829;SDS011;22767;47.328;9.640;2023-05-17T02:00:38;7.30;;;2.38;;
36829;SDS011;22767;47.328;9.640;2023-05-17T02:03:04;3.45;;;2.38;;
36829;SDS011;22767;47.328;9.640;2023-05-17T02:05:30;4.13;;;2.00;;
36829;SDS011;22767;47.328;9.640;2023-05-17T02:07:56;4.22;;;2.22;;
36829;SDS011;22767;47.328;9.640;2023-05-17T02:10:22;5.90;;;2.17;;
36829;SDS011;22767;47.328;9.640;2023-05-17T02:12:48;5.78;;;2.13;;
36829;SDS011;22767;47.328;9.640;2023-05-17T02:15:14;5.00;;;2.20;;
36829;SDS011;22767;47.328;9.640;2023-05-17T02:17:40;5.88;;;2.17;;
36829;SDS011;22767;47.328;9.640;2023-05-17T02:20:07;3.10;;;1.70;;
36829;SDS011;22767;47.328;9.640;2023-05-17T02:22:34;3.72;;;1.80;;
36829;SDS011;22767;47.328;9.640;2023-05-17T02:25:00;3.80;;;1.65;;
36829;SDS011;22767;47.328;9.640;2023-05-17T02:27:26;4.93;;;1.70;;
36829;SDS011;22767;47.328;9.640;2023-05-17T02:29:53;5.35;;;1.80;;
36829;SDS011;22767;47.328;9.640;2023-05-17T02:32:19;4.50;;;1.70;;
36829;SDS011;22767;47.328;9.640;2023-05-17T02:34:45;6.38;;;1.92;;
36829;SDS011;22767;47.328;9.640;2023-05-17T02:37:11;2.95;;;1.50;;
36829;SDS011;22767;47.328;9.640;2023-05-17T02:39:37;5.75;;;1.83;;
36829;SDS011;22767;47.328;9.640;2023-05-17T02:42:03;3.88;;;1.80;;
36829;SDS011;22767;47.328;9.640;2023-05-17T02:44:29;5.60;;;1.92;;
36829;SDS011;22767;47.328;9.640;2023-05-17T02:46:55;3.42;;;1.77;;
36829;SDS011;22767;47.328;9.640;2023-05-17T02:49:21;4.80;;;1.85;;
36829;SDS011;22767;47.328;9.640;2023-05-17T02:51:47;4.50;;;1.70;;
36829;SDS011;22767;47.328;9.640;2023-05-17T02:54:13;3.67;;;1.95;;
36829;SDS011;22767;47.328;9.640;2023-05-17T02:56:39;3.65;;;1.88;;
36829;SDS011;22767;47.328;9.640;2023-05-17T02:59:05;4.15;;;1.90;;
36829;SDS011;22767;47.328;9.640;2023-05-17T03:01:31;3.65;;;2.00;;
36829;SDS011;22767;47.328;9.640;2023-05-17T03:03:57;6.45;;;2.60;;
36829;SDS011;22767;47.328;9.640;2023-05-17T03:06:23;5.53;;;2.10;;
36829;SDS011;22767;47.328;9.640;2023-05-17T03:08:49;4.55;;;1.98;;
36829;SDS011;22767;47.328;9.640;2023-05-17T03:11:15;3.75;;;1.90;;
36829;SDS011;22767;47.328;9.640;2023-05-17T03:13:42;6.63;;;2.22;;
36829;SDS011;22767;47.328;9.640;2023-05-17T03:16:10;2.30;;;1.50;;
36829;SDS011;22767;47.328;9.640;2023-05-17T03:18:36;5.40;;;1.83;;
36829;SDS011;22767;47.328;9.640;2023-05-17T03:21:02;6.80;;;2.30;;
36829;SDS011;22767;47.328;9.640;2023-05-17T03:23:28;6.10;;;2.15;;
36829;SDS011;22767;47.328;9.640;2023-05-17T03:25:54;4.15;;;2.13;;
36829;SDS011;22767;47.328;9.640;2023-05-17T03:28:20;6.25;;;2.58;;
36829;SDS011;22767;47.328;9.640;2023-05-17T03:30:46;3.28;;;1.65;;
36829;SDS011;22767;47.328;9.640;2023-05-17T03:33:12;4.53;;;2.03;;
36829;SDS011;22767;47.328;9.640;2023-05-17T03:35:38;4.57;;;1.80;;
36829;SDS011;22767;47.328;9.640;2023-05-17T03:38:04;4.97;;;2.03;;
36829;SDS011;22767;47.328;9.640;2023-05-17T03:40:30;8.20;;;2.22;;
36829;SDS011;22767;47.328;9.640;2023-05-17T03:42:57;4.00;;;1.90;;
36829;SDS011;22767;47.328;9.640;2023-05-17T03:45:23;3.25;;;1.50;;
36829;SDS011;22767;47.328;9.640;2023-05-17T03:47:49;10.02;;;2.00;;
36829;SDS011;22767;47.328;9.640;2023-05-17T03:50:15;7.65;;;1.98;;
36829;SDS011;22767;47.328;9.640;2023-05-17T03:52:41;4.43;;;1.77;;
36829;SDS011;22767;47.328;9.640;2023-05-17T03:55:07;3.83;;;1.70;;
36829;SDS011;22767;47.328;9.640;2023-05-17T03:57:33;3.92;;;1.70;;
36829;SDS011;22767;47.328;9.640;2023-05-17T03:59:59;4.03;;;1.50;;
36829;SDS011;22767;47.328;9.640;2023-05-17T04:02:25;3.92;;;1.42;;
36829;SDS011;22767;47.328;9.640;2023-05-17T04:04:51;4.30;;;1.73;;
36829;SDS011;22767;47.328;9.640;2023-05-17T04:07:18;5.32;;;1.70;;
36829;SDS011;22767;47.328;9.640;2023-05-17T04:09:44;4.05;;;1.70;;
36829;SDS011;22767;47.328;9.640;2023-05-17T04:12:10;4.10;;;1.67;;
36829;SDS011;22767;47.328;9.640;2023-05-17T04:14:36;4.47;;;1.60;;
36829;SDS011;22767;47.328;9.640;2023-05-17T04:17:02;6.72;;;1.70;;
36829;SDS011;22767;47.328;9.640;2023-05-17T04:19:29;5.85;;;1.73;;
36829;SDS011;22767;47.328;9.640;2023-05-17T04:21:55;6.32;;;1.98;;
36829;SDS011;22767;47.328;9.640;2023-05-17T04:24:21;3.65;;;1.70;;
36829;SDS011;22767;47.328;9.640;2023-05-17T04:26:47;5.90;;;2.00;;
36829;SDS011;22767;47.328;9.640;2023-05-17T04:29:13;5.50;;;1.73;;
36829;SDS011;22767;47.328;9.640;2023-05-17T04:31:39;4.88;;;1.70;;
36829;SDS011;22767;47.328;9.640;2023-05-17T04:34:05;4.60;;;1.70;;
36829;SDS011;22767;47.328;9.640;2023-05-17T04:36:32;6.70;;;2.15;;
36829;SDS011;22767;47.328;9.640;2023-05-17T04:38:58;5.25;;;1.80;;
36829;SDS011;22767;47.328;9.640;2023-05-17T04:41:24;4.28;;;1.67;;
36829;SDS011;22767;47.328;9.640;2023-05-17T04:43:50;5.07;;;1.60;;
36829;SDS011;22767;47.328;9.640;2023-05-17T04:46:16;3.08;;;1.70;;
36829;SDS011;22767;47.328;9.640;2023-05-17T04:48:42;4.00;;;1.63;;
36829;SDS011;22767;47.328;9.640;2023-05-17T04:51:08;3.25;;;1.55;;
36829;SDS011;22767;47.328;9.640;2023-05-17T04:53:34;2.92;;;1.67;;
36829;SDS011;22767;47.328;9.640;2023-05-17T04:56:00;5.68;;;1.90;;
36829;SDS011;22767;47.328;9.640;2023-05-17T04:58:28;5.13;;;1.90;;
36829;SDS011;22767;47.328;9.640;2023-05-17T05:00:54;4.28;;;1.83;;
36829;SDS011;22767;47.328;9.640;2023-05-17T05:03:21;4.05;;;2.17;;
36829;SDS011;22767;47.328;9.640;2023-05-17T05:05:47;3.20;;;1.63;;
36829;SDS011;22767;47.328;9.640;2023-05-17T05:08:13;5.32;;;1.73;;
36829;SDS011;22767;47.328;9.640;2023-05-17T05:10:40;5.43;;;1.90;;
36829;SDS011;22767;47.328;9.640;2023-05-17T05:13:06;6.53;;;1.90;;
36829;SDS011;22767;47.328;9.640;2023-05-17T05:15:32;2.85;;;1.75;;
36829;SDS011;22767;47.328;9.640;2023-05-17T05:17:58;4.78;;;2.03;;
36829;SDS011;22767;47.328;9.640;2023-05-17T05:20:24;6.18;;;2.10;;
36829;SDS011;22767;47.328;9.640;2023-05-17T05:22:50;3.72;;;1.95;;
36829;SDS011;22767;47.328;9.640;2023-05-17T05:25:16;3.70;;;1.88;;
36829;SDS011;22767;47.328;9.640;2023-05-17T05:27:43;6.20;;;1.98;;
36829;SDS011;22767;47.328;9.640;2023-05-17T05:30:09;3.88;;;2.10;;
36829;SDS011;22767;47.328;9.640;2023-05-17T05:32:35;5.20;;;2.03;;
36829;SDS011;22767;47.328;9.640;2023-05-17T05:35:02;5.20;;;2.10;;
36829;SDS011;22767;47.328;9.640;2023-05-17T05:37:29;6.40;;;2.05;;
36829;SDS011;22767;47.328;9.640;2023-05-17T05:39:55;3.88;;;2.20;;
36829;SDS011;22767;47.328;9.640;2023-05-17T05:42:22;4.60;;;1.90;;
36829;SDS011;22767;47.328;9.640;2023-05-17T05:44:48;2.97;;;1.83;;
36829;SDS011;22767;47.328;9.640;2023-05-17T05:47:14;3.15;;;1.67;;
36829;SDS011;22767;47.328;9.640;2023-05-17T05:49:40;5.35;;;2.30;;
36829;SDS011;22767;47.328;9.640;2023-05-17T05:52:06;3.38;;;1.85;;
36829;SDS011;22767;47.328;9.640;2023-05-17T05:54:32;2.88;;;1.75;;
36829;SDS011;22767;47.328;9.640;2023-05-17T05:56:58;6.20;;;2.05;;
36829;SDS011;22767;47.328;9.640;2023-05-17T05:59:24;4.00;;;2.00;;
36829;SDS011;22767;47.328;9.640;2023-05-17T06:01:50;7.85;;;2.13;;
36829;SDS011;22767;47.328;9.640;2023-05-17T06:04:17;5.32;;;2.20;;
36829;SDS011;22767;47.328;9.640;2023-05-17T06:06:43;5.47;;;2.42;;
36829;SDS011;22767;47.328;9.640;2023-05-17T06:09:09;6.05;;;2.60;;
36829;SDS011;22767;47.328;9.640;2023-05-17T06:11:36;5.68;;;2.58;;
36829;SDS011;22767;47.328;9.640;2023-05-17T06:14:03;6.28;;;2.42;;
36829;SDS011;22767;47.328;9.640;2023-05-17T06:16:29;7.20;;;2.00;;
36829;SDS011;22767;47.328;9.640;2023-05-17T06:18:55;4.80;;;2.13;;
36829;SDS011;22767;47.328;9.640;2023-05-17T06:21:21;7.15;;;2.10;;
36829;SDS011;22767;47.328;9.640;2023-05-17T06:23:47;5.40;;;1.83;;
36829;SDS011;22767;47.328;9.640;2023-05-17T06:26:13;6.85;;;2.15;;
36829;SDS011;22767;47.328;9.640;2023-05-17T06:28:39;5.25;;;2.25;;
36829;SDS011;22767;47.328;9.640;2023-05-17T06:31:05;4.05;;;1.67;;
36829;SDS011;22767;47.328;9.640;2023-05-17T06:33:31;6.18;;;2.08;;
36829;SDS011;22767;47.328;9.640;2023-05-17T06:35:57;5.95;;;2.03;;
36829;SDS011;22767;47.328;9.640;2023-05-17T06:38:23;8.55;;;2.10;;
36829;SDS011;22767;47.328;9.640;2023-05-17T06:40:53;3.15;;;1.55;;
36829;SDS011;22767;47.328;9.640;2023-05-17T06:43:27;6.80;;;1.75;;
36829;SDS011;22767;47.328;9.640;2023-05-17T06:45:53;5.97;;;2.03;;
36829;SDS011;22767;47.328;9.640;2023-05-17T06:48:19;8.68;;;2.10;;
36829;SDS011;22767;47.328;9.640;2023-05-17T06:50:45;4.85;;;1.95;;
36829;SDS011;22767;47.328;9.640;2023-05-17T06:53:11;5.55;;;2.15;;
36829;SDS011;22767;47.328;9.640;2023-05-17T06:55:37;3.92;;;1.48;;
36829;SDS011;22767;47.328;9.640;2023-05-17T06:58:04;5.35;;;1.60;;
36829;SDS011;22767;47.328;9.640;2023-05-17T07:00:30;4.22;;;1.52;;
36829;SDS011;22767;47.328;9.640;2023-05-17T07:02:56;4.88;;;1.50;;
36829;SDS011;22767;47.328;9.640;2023-05-17T07:05:22;4.75;;;1.30;;
36829;SDS011;22767;47.328;9.640;2023-05-17T07:07:48;4.63;;;1.52;;
36829;SDS011;22767;47.328;9.640;2023-05-17T07:10:14;5.82;;;1.58;;
36829;SDS011;22767;47.328;9.640;2023-05-17T07:12:41;4.00;;;1.30;;
36829;SDS011;22767;47.328;9.640;2023-05-17T07:15:07;3.95;;;1.67;;
36829;SDS011;22767;47.328;9.640;2023-05-17T07:17:33;3.60;;;1.48;;
36829;SDS011;22767;47.328;9.640;2023-05-17T07:19:59;4.15;;;1.30;;
36829;SDS011;22767;47.328;9.640;2023-05-17T07:22:25;3.55;;;1.30;;
36829;SDS011;22767;47.328;9.640;2023-05-17T07:24:51;5.65;;;1.10;;
36829;SDS011;22767;47.328;9.640;2023-05-17T07:27:17;5.10;;;1.50;;
36829;SDS011;22767;47.328;9.640;2023-05-17T07:29:43;3.72;;;1.20;;
36829;SDS011;22767;47.328;9.640;2023-05-17T07:32:09;5.53;;;1.20;;
36829;SDS011;22767;47.328;9.640;2023-05-17T07:34:35;3.97;;;1.33;;
36829;SDS011;22767;47.328;9.640;2023-05-17T07:37:01;1.38;;;1.00;;
36829;SDS011;22767;47.328;9.640;2023-05-17T07:39:27;7.35;;;1.83;;
36829;SDS011;22767;47.328;9.640;2023-05-17T07:41:53;4.50;;;1.20;;
36829;SDS011;22767;47.328;9.640;2023-05-17T07:44:20;3.47;;;1.30;;
36829;SDS011;22767;47.328;9.640;2023-05-17T07:46:46;4.10;;;1.30;;
36829;SDS011;22767;47.328;9.640;2023-05-17T07:49:12;2.65;;;1.10;;
36829;SDS011;22767;47.328;9.640;2023-05-17T07:51:38;2.92;;;0.88;;
36829;SDS011;22767;47.328;9.640;2023-05-17T07:54:05;5.38;;;1.02;;
36829;SDS011;22767;47.328;9.640;2023-05-17T07:56:31;3.03;;;1.05;;
36829;SDS011;22767;47.328;9.640;2023-05-17T07:58:58;2.92;;;1.10;;
36829;SDS011;22767;47.328;9.640;2023-05-17T08:01:24;4.00;;;0.95;;
36829;SDS011;22767;47.328;9.640;2023-05-17T08:03:51;6.13;;;1.20;;
36829;SDS011;22767;47.328;9.640;2023-05-17T08:06:17;4.10;;;0.95;;
36829;SDS011;22767;47.328;9.640;2023-05-17T08:08:44;3.90;;;1.00;;
36829;SDS011;22767;47.328;9.640;2023-05-17T08:11:10;2.78;;;0.88;;
36829;SDS011;22767;47.328;9.640;2023-05-17T08:13:37;2.25;;;1.00;;
36829;SDS011;22767;47.328;9.640;2023-05-17T08:16:03;3.72;;;1.05;;
36829;SDS011;22767;47.328;9.640;2023-05-17T08:18:32;4.20;;;1.17;;
36829;SDS011;22767;47.328;9.640;2023-05-17T08:20:58;4.28;;;0.90;;
36829;SDS011;22767;47.328;9.640;2023-05-17T08:23:24;2.78;;;1.00;;
36829;SDS011;22767;47.328;9.640;2023-05-17T08:25:50;3.28;;;1.10;;
36829;SDS011;22767;47.328;9.640;2023-05-17T08:28:17;2.58;;;1.10;;
36829;SDS011;22767;47.328;9.640;2023-05-17T08:30:43;2.92;;;0.93;;
36829;SDS011;22767;47.328;9.640;2023-05-17T08:33:09;3.63;;;1.08;;
36829;SDS011;22767;47.328;9.640;2023-05-17T08:35:36;3.83;;;1.13;;
36829;SDS011;22767;47.328;9.640;2023-05-17T08:38:02;2.88;;;1.15;;
36829;SDS011;22767;47.328;9.640;2023-05-17T08:40:28;3.85;;;1.00;;
36829;SDS011;22767;47.328;9.640;2023-05-17T08:42:54;3.45;;;1.00;;
36829;SDS011;22767;47.328;9.640;2023-05-17T08:45:20;2.70;;;1.13;;
36829;SDS011;22767;47.328;9.640;2023-05-17T08:47:47;4.03;;;1.10;;
36829;SDS011;22767;47.328;9.640;2023-05-17T08:50:15;4.32;;;1.15;;
36829;SDS011;22767;47.328;9.640;2023-05-17T08:52:43;3.50;;;1.10;;
36829;SDS011;22767;47.328;9.640;2023-05-17T08:55:10;3.08;;;1.10;;
36829;SDS011;22767;47.328;9.640;2023-05-17T08:57:36;4.90;;;1.15;;
36829;SDS011;22767;47.328;9.640;2023-05-17T09:00:04;6.38;;;1.38;;
36829;SDS011;22767;47.328;9.640;2023-05-17T09:02:39;5.82;;;1.20;;
36829;SDS011;22767;47.328;9.640;2023-05-17T09:05:06;3.20;;;0.73;;
36829;SDS011;22767;47.328;9.640;2023-05-17T09:07:33;3.00;;;1.10;;
36829;SDS011;22767;47.328;9.640;2023-05-17T09:09:59;3.97;;;0.88;;
36829;SDS011;22767;47.328;9.640;2023-05-17T09:12:29;2.83;;;1.00;;
36829;SDS011;22767;47.328;9.640;2023-05-17T09:15:10;2.20;;;1.10;;
36829;SDS011;22767;47.328;9.640;2023-05-17T09:17:37;3.33;;;1.17;;
36829;SDS011;22767;47.328;9.640;2023-05-17T09:20:04;5.00;;;1.25;;
36829;SDS011;22767;47.328;9.640;2023-05-17T09:22:31;5.50;;;1.60;;
36829;SDS011;22767;47.328;9.640;2023-05-17T09:24:57;3.90;;;1.17;;
36829;SDS011;22767;47.328;9.640;2023-05-17T09:27:26;4.78;;;1.40;;
36829;SDS011;22767;47.328;9.640;2023-05-17T09:29:55;3.10;;;0.98;;
36829;SDS011;22767;47.328;9.640;2023-05-17T09:32:22;3.05;;;0.98;;
36829;SDS011;22767;47.328;9.640;2023-05-17T09:34:52;2.78;;;0.98;;
36829;SDS011;22767;47.328;9.640;2023-05-17T09:37:20;2.75;;;0.82;;
36829;SDS011;22767;47.328;9.640;2023-05-17T09:39:46;1.58;;;0.85;;
36829;SDS011;22767;47.328;9.640;2023-05-17T09:42:13;3.03;;;1.42;;
36829;SDS011;22767;47.328;9.640;2023-05-17T09:44:47;5.03;;;1.38;;
36829;SDS011;22767;47.328;9.640;2023-05-17T09:47:21;3.83;;;1.13;;
36829;SDS011;22767;47.328;9.640;2023-05-17T09:49:47;1.75;;;1.02;;
36829;SDS011;22767;47.328;9.640;2023-05-17T09:52:15;4.10;;;1.08;;
36829;SDS011;22767;47.328;9.640;2023-05-17T09:54:42;4.47;;;1.05;;
36829;SDS011;22767;47.328;9.640;2023-05-17T09:57:08;4.68;;;1.00;;
36829;SDS011;22767;47.328;9.640;2023-05-17T09:59:34;3.05;;;1.02;;
36829;SDS011;22767;47.328;9.640;2023-05-17T10:02:01;2.88;;;0.98;;
36829;SDS011;22767;47.328;9.640;2023-05-17T10:04:30;3.65;;;1.00;;
36829;SDS011;22767;47.328;9.640;2023-05-17T10:06:58;3.65;;;1.10;;
36829;SDS011;22767;47.328;9.640;2023-05-17T10:09:24;1.90;;;1.00;;
36829;SDS011;22767;47.328;9.640;2023-05-17T10:11:51;2.45;;;0.93;;
36829;SDS011;22767;47.328;9.640;2023-05-17T10:14:18;6.70;;;1.33;;
36829;SDS011;22767;47.328;9.640;2023-05-17T10:16:46;2.45;;;1.10;;
36829;SDS011;22767;47.328;9.640;2023-05-17T10:19:13;2.30;;;0.80;;
36829;SDS011;22767;47.328;9.640;2023-05-17T10:21:43;2.50;;;1.00;;
36829;SDS011;22767;47.328;9.640;2023-05-17T10:24:09;2.90;;;0.93;;
36829;SDS011;22767;47.328;9.640;2023-05-17T10:26:36;3.13;;;0.70;;
36829;SDS011;22767;47.328;9.640;2023-05-17T10:29:02;2.88;;;0.90;;
36829;SDS011;22767;47.328;9.640;2023-05-17T10:31:30;3.95;;;1.30;;
36829;SDS011;22767;47.328;9.640;2023-05-17T10:34:01;2.22;;;0.70;;
36829;SDS011;22767;47.328;9.640;2023-05-17T10:36:27;3.53;;;0.80;;
36829;SDS011;22767;47.328;9.640;2023-05-17T10:38:53;2.38;;;0.90;;
36829;SDS011;22767;47.328;9.640;2023-05-17T10:41:21;2.83;;;1.00;;
36829;SDS011;22767;47.328;9.640;2023-05-17T10:43:48;2.78;;;1.13;;
36829;SDS011;22767;47.328;9.640;2023-05-17T10:46:14;2.85;;;1.15;;
36829;SDS011;22767;47.328;9.640;2023-05-17T10:48:42;2.53;;;0.88;;
36829;SDS011;22767;47.328;9.640;2023-05-17T10:51:09;3.33;;;0.90;;
36829;SDS011;22767;47.328;9.640;2023-05-17T10:54:21;5.38;;;0.70;;
36829;SDS011;22767;47.328;9.640;2023-05-17T10:56:22;2.13;;;0.90;;
36829;SDS011;22767;47.328;9.640;2023-05-17T10:58:48;3.67;;;1.00;;
36829;SDS011;22767;47.328;9.640;2023-05-17T11:01:53;4.95;;;1.05;;
36829;SDS011;22767;47.328;9.640;2023-05-17T11:04:30;3.35;;;0.95;;
36829;SDS011;22767;47.328;9.640;2023-05-17T11:09:43;2.67;;;1.02;;
36829;SDS011;22767;47.328;9.640;2023-05-17T11:12:09;4.97;;;0.90;;
36829;SDS011;22767;47.328;9.640;2023-05-17T11:14:45;1.90;;;0.70;;
36829;SDS011;22767;47.328;9.640;2023-05-17T11:17:11;2.47;;;0.80;;
36829;SDS011;22767;47.328;9.640;2023-05-17T11:19:47;1.95;;;0.95;;
36829;SDS011;22767;47.328;9.640;2023-05-17T11:22:14;1.00;;;0.60;;
36829;SDS011;22767;47.328;9.640;2023-05-17T11:24:41;2.90;;;0.73;;
36829;SDS011;22767;47.328;9.640;2023-05-17T11:27:10;2.38;;;0.88;;
36829;SDS011;22767;47.328;9.640;2023-05-17T11:29:38;1.83;;;0.77;;
36829;SDS011;22767;47.328;9.640;2023-05-17T11:32:09;2.45;;;0.80;;
36829;SDS011;22767;47.328;9.640;2023-05-17T11:34:35;3.92;;;1.00;;
36829;SDS011;22767;47.328;9.640;2023-05-17T11:37:01;2.05;;;0.80;;
36829;SDS011;22767;47.328;9.640;2023-05-17T11:39:30;3.42;;;0.90;;
36829;SDS011;22767;47.328;9.640;2023-05-17T11:41:56;3.25;;;0.80;;
36829;SDS011;22767;47.328;9.640;2023-05-17T11:44:32;3.20;;;0.85;;
36829;SDS011;22767;47.328;9.640;2023-05-17T11:47:06;2.88;;;1.08;;
36829;SDS011;22767;47.328;9.640;2023-05-17T11:49:35;3.42;;;1.05;;
36829;SDS011;22767;47.328;9.640;2023-05-17T11:52:01;4.72;;;0.93;;
36829;SDS011;22767;47.328;9.640;2023-05-17T11:54:27;5.07;;;0.90;;
36829;SDS011;22767;47.328;9.640;2023-05-17T11:56:54;5.95;;;0.80;;
36829;SDS011;22767;47.328;9.640;2023-05-17T11:59:21;2.28;;;0.70;;
36829;SDS011;22767;47.328;9.640;2023-05-17T12:01:48;3.08;;;1.00;;
36829;SDS011;22767;47.328;9.640;2023-05-17T12:04:22;3.13;;;1.35;;
36829;SDS011;22767;47.328;9.640;2023-05-17T12:06:51;3.05;;;0.90;;
36829;SDS011;22767;47.328;9.640;2023-05-17T12:09:17;3.35;;;1.10;;
36829;SDS011;22767;47.328;9.640;2023-05-17T12:11:45;4.00;;;0.95;;
36829;SDS011;22767;47.328;9.640;2023-05-17T12:14:15;3.63;;;1.10;;
36829;SDS011;22767;47.328;9.640;2023-05-17T12:16:42;4.93;;;0.90;;
36829;SDS011;22767;47.328;9.640;2023-05-17T12:19:16;4.30;;;0.80;;
36829;SDS011;22767;47.328;9.640;2023-05-17T12:21:46;4.78;;;1.17;;
36829;SDS011;22767;47.328;9.640;2023-05-17T12:24:12;1.60;;;0.70;;
36829;SDS011;22767;47.328;9.640;2023-05-17T12:26:42;5.32;;;0.90;;
36829;SDS011;22767;47.328;9.640;2023-05-17T12:29:11;5.38;;;0.90;;
36829;SDS011;22767;47.328;9.640;2023-05-17T12:31:42;2.33;;;0.90;;
36829;SDS011;22767;47.328;9.640;2023-05-17T12:34:09;1.88;;;0.82;;
36829;SDS011;22767;47.328;9.640;2023-05-17T12:36:40;6.32;;;1.10;;
36829;SDS011;22767;47.328;9.640;2023-05-17T12:39:08;2.90;;;0.82;;
36829;SDS011;22767;47.328;9.640;2023-05-17T12:41:35;1.98;;;0.75;;
36829;SDS011;22767;47.328;9.640;2023-05-17T12:44:02;3.13;;;1.02;;
36829;SDS011;22767;47.328;9.640;2023-05-17T12:46:29;2.53;;;1.02;;
36829;SDS011;22767;47.328;9.640;2023-05-17T12:48:59;4.65;;;0.90;;
36829;SDS011;22767;47.328;9.640;2023-05-17T12:51:25;4.30;;;1.20;;
36829;SDS011;22767;47.328;9.640;2023-05-17T12:53:52;2.92;;;1.00;;
36829;SDS011;22767;47.328;9.640;2023-05-17T12:56:23;5.30;;;1.10;;
36829;SDS011;22767;47.328;9.640;2023-05-17T13:01:36;3.85;;;0.95;;
36829;SDS011;22767;47.328;9.640;2023-05-17T13:04:02;2.90;;;0.95;;
36829;SDS011;22767;47.328;9.640;2023-05-17T13:06:28;3.33;;;1.02;;
36829;SDS011;22767;47.328;9.640;2023-05-17T13:08:59;4.30;;;0.90;;
36829;SDS011;22767;47.328;9.640;2023-05-17T13:11:25;4.05;;;0.90;;
36829;SDS011;22767;47.328;9.640;2023-05-17T13:13:51;4.75;;;0.93;;
36829;SDS011;22767;47.328;9.640;2023-05-17T13:16:26;2.50;;;0.88;;
36829;SDS011;22767;47.328;9.640;2023-05-17T13:18:52;3.38;;;1.00;;
36829;SDS011;22767;47.328;9.640;2023-05-17T13:21:19;4.00;;;1.00;;
36829;SDS011;22767;47.328;9.640;2023-05-17T13:23:46;3.17;;;1.23;;
36829;SDS011;22767;47.328;9.640;2023-05-17T13:26:13;4.65;;;1.13;;
36829;SDS011;22767;47.328;9.640;2023-05-17T13:28:39;3.30;;;1.27;;
36829;SDS011;22767;47.328;9.640;2023-05-17T13:31:05;4.55;;;0.88;;
36829;SDS011;22767;47.328;9.640;2023-05-17T13:33:31;2.05;;;0.98;;
36829;SDS011;22767;47.328;9.640;2023-05-17T13:35:57;4.30;;;1.38;;
36829;SDS011;22767;47.328;9.640;2023-05-17T13:38:23;4.03;;;1.10;;
36829;SDS011;22767;47.328;9.640;2023-05-17T13:40:49;4.07;;;1.30;;
36829;SDS011;22767;47.328;9.640;2023-05-17T13:43:16;4.60;;;1.30;;
36829;SDS011;22767;47.328;9.640;2023-05-17T13:45:42;3.03;;;0.90;;
36829;SDS011;22767;47.328;9.640;2023-05-17T13:48:08;3.55;;;1.35;;
36829;SDS011;22767;47.328;9.640;2023-05-17T13:50:34;3.10;;;1.20;;
36829;SDS011;22767;47.328;9.640;2023-05-17T13:53:01;6.93;;;1.20;;
36829;SDS011;22767;47.328;9.640;2023-05-17T13:55:27;6.88;;;1.48;;
36829;SDS011;22767;47.328;9.640;2023-05-17T13:57:53;2.03;;;1.00;;
36829;SDS011;22767;47.328;9.640;2023-05-17T14:00:20;5.45;;;1.17;;
36829;SDS011;22767;47.328;9.640;2023-05-17T14:02:46;4.80;;;1.17;;
36829;SDS011;22767;47.328;9.640;2023-05-17T14:05:12;4.88;;;1.23;;
36829;SDS011;22767;47.328;9.640;2023-05-17T14:07:38;3.67;;;1.10;;
36829;SDS011;22767;47.328;9.640;2023-05-17T14:10:10;4.15;;;1.13;;
36829;SDS011;22767;47.328;9.640;2023-05-17T14:12:37;4.53;;;1.40;;
36829;SDS011;22767;47.328;9.640;2023-05-17T14:15:03;3.63;;;1.40;;
36829;SDS011;22767;47.328;9.640;2023-05-17T14:17:30;2.22;;;0.80;;
36829;SDS011;22767;47.328;9.640;2023-05-17T14:19:57;4.28;;;1.42;;
36829;SDS011;22767;47.328;9.640;2023-05-17T14:22:23;6.70;;;1.58;;
36829;SDS011;22767;47.328;9.640;2023-05-17T14:24:55;4.45;;;1.58;;
36829;SDS011;22767;47.328;9.640;2023-05-17T14:27:21;3.22;;;1.10;;
36829;SDS011;22767;47.328;9.640;2023-05-17T14:29:47;4.50;;;1.38;;
36829;SDS011;22767;47.328;9.640;2023-05-17T14:32:13;3.72;;;1.52;;
36829;SDS011;22767;47.328;9.640;2023-05-17T14:34:39;6.32;;;1.33;;
36829;SDS011;22767;47.328;9.640;2023-05-17T14:37:05;3.88;;;1.25;;
36829;SDS011;22767;47.328;9.640;2023-05-17T14:39:31;3.40;;;1.23;;
36829;SDS011;22767;47.328;9.640;2023-05-17T14:41:58;1.73;;;1.00;;
36829;SDS011;22767;47.328;9.640;2023-05-17T14:44:24;6.18;;;1.38;;
36829;SDS011;22767;47.328;9.640;2023-05-17T14:46:51;3.28;;;1.02;;
36829;SDS011;22767;47.328;9.640;2023-05-17T14:49:17;2.05;;;1.00;;
36829;SDS011;22767;47.328;9.640;2023-05-17T14:51:43;3.40;;;1.50;;
36829;SDS011;22767;47.328;9.640;2023-05-17T14:54:09;1.77;;;1.20;;
36829;SDS011;22767;47.328;9.640;2023-05-17T14:56:35;3.42;;;0.98;;
36829;SDS011;22767;47.328;9.640;2023-05-17T14:59:01;3.22;;;1.23;;
36829;SDS011;22767;47.328;9.640;2023-05-17T15:01:27;2.72;;;1.00;;
36829;SDS011;22767;47.328;9.640;2023-05-17T15:03:53;2.17;;;0.93;;